Ship Status Report: callsign BAREU11

sailwx.info

Track history (hours):
 
Tides and Currents Weather Stations Pressure Air Temp Water Temp Dewpoint Dewpoint Depression Visibility Wind Speed Wind Dir Waves Ship Positions

Callsign BAREU11 (name unknown)

Last reported at 2015-May-29 18:00 UTC. Time now 2015-May-30 04:34 UTC.
Position N 53°30' E 009°54'.

Barometer 1005.3 mb

Date/timePositionNaut miles runAvg speedWind from/ knotsBaromVisibWave heightAir tempDewpointWater temp
2015-May-29 18:00N 53°30' E 009°54'0 0.0 1005.3
2015-May-29 13:00N 53°30' E 009°54'9 9.3 1008.1
2015-May-29 12:00N 53°36' E 009°42'9 9.3 1008.9
2015-May-29 11:00N 53°42' E 009°30'1616.0 1009.4
2015-May-29 10:00N 53°54' E 009°12'1414.1 1009.8
2015-May-29 09:00N 53°54' E 008°48'1515.3 1009.9
2015-May-29 08:00N 54°00' E 008°24'1414.1 1010.0
2015-May-29 07:00N 54°00' E 008°00'1918.6 1010.1
2015-May-29 06:00N 53°54' E 007°30'1817.7 1010.1
2015-May-29 05:00N 53°54' E 007°00'2222.1 1010.3
2015-May-29 04:00N 53°48' E 006°24'1918.7 1010.3
2015-May-29 03:00N 53°42' E 005°54'2222.2 1010.6
2015-May-29 02:00N 53°36' E 005°18'2221.5 1010.9
2015-May-29 01:00N 53°24' E 004°48'1616.1 1011.5
2015-May-29 00:00N 53°12' E 004°30'2121.0 1012.3
2015-May-28 23:00N 52°54' E 004°12'2121.0 1012.8
2015-May-28 22:00N 52°36' E 003°54'1818.0 1013.3
2015-May-28 21:00N 52°18' E 003°54'1818.0 1013.6
2015-May-28 20:00N 52°00' E 003°54'1312.6 1013.9
2015-May-28 19:00N 51°54' E 004°12'7 0.3 1014.3
2015-May-27 20:00N 51°54' E 004°24'0 0.0 1018.7
2015-May-27 14:00N 51°54' E 004°24'10 4.8 1022.3
2015-May-27 12:00N 52°00' E 004°12'1111.1 1023.3
2015-May-27 11:00N 52°00' E 003°54'0 0.0 1023.9
2015-May-27 10:00N 52°00' E 003°54'1616.0 1024.2
2015-May-27 09:00N 51°54' E 003°30'1919.5 1024.4
2015-May-27 08:00N 51°48' E 003°00'1616.0 1024.5
2015-May-27 07:00N 51°42' E 002°36'1919.1 1024.4
2015-May-27 06:00N 51°30' E 002°12'1919.5 1024.5
2015-May-27 05:00N 51°12' E 002°00'1919.3 1024.9
2015-May-27 04:00N 51°00' E 001°36'2019.5 1024.8
2015-May-27 03:00N 50°42' E 001°24'1312.9 1025.6
2015-May-27 02:00N 50°36' E 001°06'1312.9 1026.1
2015-May-27 01:00N 50°30' E 000°48'2020.0 1025.9
2015-May-27 00:00N 50°24' E 000°18'1616.4 1026.3
2015-May-26 23:00N 50°18' W 000°06'1616.5 1026.4
2015-May-26 22:00N 50°12' W 000°30'1919.2 1026.4
2015-May-26 21:00N 50°12' W 001°00'1716.5 1026.6
2015-May-26 20:00N 50°06' W 001°24'1716.5 1026.6
2015-May-26 19:00N 50°00' W 001°48'1716.6 1026.5
2015-May-26 18:00N 49°54' W 002°12'1515.5 1026.3
2015-May-26 17:00N 49°54' W 002°36'2020.3 1026.5
2015-May-26 16:00N 49°48' W 003°06'1515.5 1026.6
2015-May-26 15:00N 49°48' W 003°30'2020.3 1026.6
2015-May-26 14:00N 49°42' W 004°00'1615.5 1026.7
2015-May-26 13:00N 49°42' W 004°24'1919.4 1026.9
2015-May-26 12:00N 49°42' W 004°54'1716.7 1027.1
2015-May-26 11:00N 49°36' W 005°18'1919.4 1027.5
2015-May-26 10:00N 49°36' W 005°48'1615.6 1027.7
2015-May-26 09:00N 49°36' W 006°12'1919.4 1027.6
2015-May-26 08:00N 49°36' W 006°42'1919.4 1027.4
2015-May-26 07:00N 49°36' W 007°12'2020.4 1027.4
2015-May-26 06:00N 49°30' W 007°42'1919.5 1027.1
2015-May-26 05:00N 49°30' W 008°12'2020.4 1026.8
2015-May-26 04:00N 49°24' W 008°42'1615.6 1027.0
2015-May-26 03:00N 49°24' W 009°06'2020.4 1027.3
2015-May-26 02:00N 49°18' W 009°36'2020.5 1027.5
2015-May-26 01:00N 49°12' W 010°06'1716.8 1027.9
2015-May-26 00:00N 49°06' W 010°30'2019.6 1028.5
2015-May-25 23:00N 49°06' W 011°00'2120.6 1028.8
2015-May-25 22:00N 49°00' W 011°30'1716.9 1028.8
2015-May-25 21:00N 48°54' W 011°54'2019.7 1028.9
2015-May-25 20:00N 48°54' W 012°24'1716.9 1029.1
2015-May-25 19:00N 48°48' W 012°48'2120.7 1029.3
2015-May-25 18:00N 48°42' W 013°18'2120.7 1029.6
2015-May-25 17:00N 48°36' W 013°48'1615.9 1030.2
2015-May-25 16:00N 48°36' W 014°12'2120.7 1030.6
2015-May-25 15:00N 48°30' W 014°42'1717.0 1031.0
2015-May-25 14:00N 48°24' W 015°06'2120.8 1031.4
2015-May-25 13:00N 48°18' W 015°36'1717.1 1031.7
2015-May-25 12:00N 48°12' W 016°00'2120.9 1031.8
2015-May-25 11:00N 48°06' W 016°30'2120.9 1031.9
2015-May-25 10:00N 48°00' W 017°00'1616.1 1032.3
2015-May-25 09:00N 48°00' W 017°24'2121.0 1032.4
2015-May-25 08:00N 47°54' W 017°54'1717.2 1032.4
2015-May-25 07:00N 47°48' W 018°18'1717.2 1032.2
2015-May-25 06:00N 47°42' W 018°42'2121.1 1032.3
2015-May-25 05:00N 47°36' W 019°12'1717.3 1032.3
2015-May-25 04:00N 47°30' W 019°36'2020.2 1032.8
2015-May-25 03:00N 47°18' W 020°00'2020.3 1033.1
2015-May-25 02:00N 47°18' W 020°30'2020.2 1033.7
2015-May-25 01:00N 47°06' W 020°54'1717.4 1034.1
2015-May-25 00:00N 47°00' W 021°18'2121.3 1034.4
2015-May-24 23:00N 46°54' W 021°48'1717.5 1034.7
2015-May-24 22:00N 46°48' W 022°12'1817.5 1034.5
2015-May-24 21:00N 46°42' W 022°36'2121.4 1034.2
2015-May-24 20:00N 46°36' W 023°06'1817.6 1034.3
2015-May-24 19:00N 46°30' W 023°30'1817.6 1034.5
2015-May-24 18:00N 46°24' W 023°54'2020.5 1034.5
2015-May-24 17:00N 46°12' W 024°18'1817.7 1034.5
2015-May-24 16:00N 46°06' W 024°42'1817.7 1034.5
2015-May-24 15:00N 46°00' W 025°06'1817.7 1034.8
2015-May-24 14:00N 45°54' W 025°30'2120.6 1035.0
2015-May-24 13:00N 45°42' W 025°54'3617.8 1035.3
2015-May-24 11:00N 45°30' W 026°42'1817.9 1035.3
2015-May-24 10:00N 45°24' W 027°06'2424.3 1035.4
2015-May-24 09:00N 45°12' W 027°36'1818.0 1035.3
2015-May-24 08:00N 45°06' W 028°00'1818.0 1035.4
2015-May-24 07:00N 45°00' W 028°24'2120.8 1035.4
2015-May-24 06:00N 44°48' W 028°48'1818.1 1035.4
2015-May-24 05:00N 44°42' W 029°12'2120.9 1035.6
2015-May-24 04:00N 44°30' W 029°36'1818.2 1035.6
2015-May-24 03:00N 44°24' W 030°00'2121.0 1035.8
2015-May-24 02:00N 44°12' W 030°24'1818.2 1036.2
2015-May-24 01:00N 44°06' W 030°48'1818.3 1036.5
2015-May-24 00:00N 44°00' W 031°12'1817.7 1036.9
2015-May-23 23:00N 43°48' W 031°30'1818.3 1037.3
2015-May-23 22:00N 43°42' W 031°54'2121.1 1037.2
2015-May-23 21:00N 43°30' W 032°18'1818.4 1037.2
2015-May-23 20:00N 43°24' W 032°42'2121.2 1037.1
2015-May-23 19:00N 43°12' W 033°06'1414.4 1037.0
2015-May-23 18:00N 43°06' W 033°24'2121.3 1037.0
2015-May-23 17:00N 42°54' W 033°48'1918.6 1037.2
2015-May-23 16:00N 42°48' W 034°12'2121.3 1037.2
2015-May-23 15:00N 42°36' W 034°36'1817.9 1037.2
2015-May-23 14:00N 42°24' W 034°54'1918.7 1037.3
2015-May-23 13:00N 42°18' W 035°18'2121.5 1037.0
2015-May-23 12:00N 42°06' W 035°42'1514.7 1036.7
2015-May-23 11:00N 42°00' W 036°00'2221.5 1036.3
2015-May-23 10:00N 41°48' W 036°24'2221.6 1036.1
2015-May-23 09:00N 41°36' W 036°48'1514.7 1035.8
2015-May-23 08:00N 41°30' W 037°06'2221.6 1035.3
2015-May-23 07:00N 41°18' W 037°30'1818.1 1034.8
2015-May-23 06:00N 41°06' W 037°48'1919.1 1034.5
2015-May-23 05:00N 41°00' W 038°12'1818.1 1034.3
2015-May-23 04:00N 40°48' W 038°30'2221.8 1034.5
2015-May-23 03:00N 40°36' W 038°54'1514.9 1034.3
2015-May-23 02:00N 40°30' W 039°12'2221.9 1034.2
2015-May-23 01:00N 40°18' W 039°36'1818.2 1034.2
2015-May-23 00:00N 40°06' W 039°54'2222.0 1034.0
2015-May-22 23:00N 39°54' W 040°18'1515.1 1033.6
2015-May-22 22:00N 39°48' W 040°36'1818.3 1032.7
2015-May-22 21:00N 39°36' W 040°54'2222.1 1032.0
2015-May-22 20:00N 39°24' W 041°18'1818.4 1031.3
2015-May-22 19:00N 39°12' W 041°36'1818.4 1030.8
2015-May-22 18:00N 39°00' W 041°54'2222.2 1030.3
2015-May-22 17:00N 38°48' W 042°18'1515.3 1030.0
2015-May-22 16:00N 38°42' W 042°36'2222.3 1029.7
2015-May-22 15:00N 38°30' W 043°00'1918.5 1029.4
2015-May-22 14:00N 38°18' W 043°18'1918.5 1029.0
2015-May-22 13:00N 38°06' W 043°36'1918.6 1028.5
2015-May-22 12:00N 37°54' W 043°54'2222.4 1028.0
2015-May-22 11:00N 37°42' W 044°18'1515.5 1027.1
2015-May-22 10:00N 37°36' W 044°36'1918.7 1026.4
2015-May-22 09:00N 37°24' W 044°54'1918.7 1025.3
2015-May-22 08:00N 37°12' W 045°12'2322.6 1024.5
2015-May-22 07:00N 37°00' W 045°36'1918.7 1023.9
2015-May-22 06:00N 36°48' W 045°54'1918.8 1023.6
2015-May-22 05:00N 36°36' W 046°12'1918.8 1023.2
2015-May-22 04:00N 36°24' W 046°30'1918.8 1023.0
2015-May-22 03:00N 36°12' W 046°48'1918.9 1023.1
2015-May-22 02:00N 36°00' W 047°06'1918.9 1022.9
2015-May-22 01:00N 35°48' W 047°24'2322.9 1022.7
2015-May-22 00:00N 35°36' W 047°48'1918.9 1022.1
2015-May-21 23:00N 35°24' W 048°06'1515.5 1021.2
2015-May-21 22:00N 35°12' W 048°18'1919.0 1020.2
2015-May-21 21:00N 35°00' W 048°36'1919.0 1019.5
2015-May-21 20:00N 34°48' W 048°54'1919.1 1019.2
2015-May-21 19:00N 34°36' W 049°12'1919.1 1019.2
2015-May-21 18:00N 34°24' W 049°30'2323.2 1018.9
2015-May-21 17:00N 34°12' W 049°54'1919.1 1019.1
2015-May-21 16:00N 34°00' W 050°12'1615.6 1018.9
2015-May-21 15:00N 33°48' W 050°24'2323.3 1018.7
2015-May-21 14:00N 33°36' W 050°48'1919.2 1018.9
2015-May-21 13:00N 33°24' W 051°06'1919.2 1018.4
2015-May-21 12:00N 33°12' W 051°24'1919.3 1018.1
2015-May-21 11:00N 33°00' W 051°42'1919.3 1017.6
2015-May-21 10:00N 32°48' W 052°00'1919.3 1017.5
2015-May-21 09:00N 32°36' W 052°18'1919.4 1017.0
2015-May-21 08:00N 32°24' W 052°36'1919.4 1016.4
2015-May-21 07:00N 32°12' W 052°54'1615.7 1016.2
2015-May-21 06:00N 32°00' W 053°06'1919.4 1016.3
2015-May-21 05:00N 31°48' W 053°24'1919.5 1016.4
2015-May-21 04:00N 31°36' W 053°42'1919.5 1016.7
2015-May-21 03:00N 31°24' W 054°00'1615.8 1016.9
2015-May-21 02:00N 31°12' W 054°12'2423.7 1017.0
2015-May-21 01:00N 30°54' W 054°30'2019.6 1017.1
2015-May-21 00:00N 30°42' W 054°48'1615.8 1016.9
2015-May-20 23:00N 30°30' W 055°00'2019.6 1016.4
2015-May-20 22:00N 30°18' W 055°18'2019.6 1016.2
2015-May-20 21:00N 30°06' W 055°36'1615.9 1015.6
2015-May-20 20:00N 29°54' W 055°48'2019.7 1015.7
2015-May-20 19:00N 29°42' W 056°06'2019.7 1016.1
2015-May-20 18:00N 29°30' W 056°24'1615.9 1016.2
2015-May-20 17:00N 29°18' W 056°36'2423.9 1016.6
2015-May-20 16:00N 29°00' W 056°54'2019.8 1016.7
2015-May-20 15:00N 28°48' W 057°12'1616.0 1016.6
2015-May-20 14:00N 28°36' W 057°24'2019.9 1016.7
2015-May-20 13:00N 28°24' W 057°42'2019.9 1016.7
2015-May-20 12:00N 28°12' W 058°00'1616.0 1016.7
2015-May-20 11:00N 28°00' W 058°12'2424.0 1016.3
2015-May-20 10:00N 27°42' W 058°30'1616.0 1016.3
2015-May-20 09:00N 27°30' W 058°42'2020.0 1015.7
2015-May-20 08:00N 27°18' W 059°00'1616.1 1015.5
2015-May-20 07:00N 27°06' W 059°12'1616.1 1015.8
2015-May-20 06:00N 26°54' W 059°24'2020.1 1015.7
2015-May-20 05:00N 26°42' W 059°42'1616.1 1016.1
2015-May-20 04:00N 26°30' W 059°54'2020.1 1016.9
2015-May-20 03:00N 26°18' W 060°12'1616.1 1017.6
2015-May-20 02:00N 26°06' W 060°24'2121.0 1017.9
2015-May-20 01:00N 25°48' W 060°36'2020.2 1017.5
2015-May-20 00:00N 25°36' W 060°54'1616.2 1017.3
2015-May-19 23:00N 25°24' W 061°06'2020.2 1017.1
2015-May-19 22:00N 25°12' W 061°24'1616.2 1016.8
2015-May-19 21:00N 25°00' W 061°36'2121.0 1016.9
2015-May-19 20:00N 24°42' W 061°48'2020.3 1017.1
2015-May-19 19:00N 24°30' W 062°06'1616.2 1017.5
2015-May-19 18:00N 24°18' W 062°18'   1018.1
Track history (hours):
 
Tides and Currents Weather Stations Pressure Air Temp Water Temp Dewpoint Dewpoint Depression Visibility Wind Speed Wind Dir Waves Ship Positions

Callsign BAREU11 (name unknown)

Last reported at 2015-May-29 18:00 UTC. Time now 2015-May-30 04:34 UTC.
Position N 53°30' E 009°54'.

Barometer 1005.3 mb

Date/timePositionNaut miles runAvg speedWind from/ knotsBaromVisibWave heightAir tempDewpointWater temp
2015-May-29 18:00N 53°30' E 009°54'0 0.0 1005.3
2015-May-29 13:00N 53°30' E 009°54'9 9.3 1008.1
2015-May-29 12:00N 53°36' E 009°42'9 9.3 1008.9
2015-May-29 11:00N 53°42' E 009°30'1616.0 1009.4
2015-May-29 10:00N 53°54' E 009°12'1414.1 1009.8
2015-May-29 09:00N 53°54' E 008°48'1515.3 1009.9
2015-May-29 08:00N 54°00' E 008°24'1414.1 1010.0
2015-May-29 07:00N 54°00' E 008°00'1918.6 1010.1
2015-May-29 06:00N 53°54' E 007°30'1817.7 1010.1
2015-May-29 05:00N 53°54' E 007°00'2222.1 1010.3
2015-May-29 04:00N 53°48' E 006°24'1918.7 1010.3
2015-May-29 03:00N 53°42' E 005°54'2222.2 1010.6
2015-May-29 02:00N 53°36' E 005°18'2221.5 1010.9
2015-May-29 01:00N 53°24' E 004°48'1616.1 1011.5
2015-May-29 00:00N 53°12' E 004°30'2121.0 1012.3
2015-May-28 23:00N 52°54' E 004°12'2121.0 1012.8
2015-May-28 22:00N 52°36' E 003°54'1818.0 1013.3
2015-May-28 21:00N 52°18' E 003°54'1818.0 1013.6
2015-May-28 20:00N 52°00' E 003°54'1312.6 1013.9
2015-May-28 19:00N 51°54' E 004°12'7 0.3 1014.3
2015-May-27 20:00N 51°54' E 004°24'0 0.0 1018.7
2015-May-27 14:00N 51°54' E 004°24'10 4.8 1022.3
2015-May-27 12:00N 52°00' E 004°12'1111.1 1023.3
2015-May-27 11:00N 52°00' E 003°54'0 0.0 1023.9
2015-May-27 10:00N 52°00' E 003°54'1616.0 1024.2
2015-May-27 09:00N 51°54' E 003°30'1919.5 1024.4
2015-May-27 08:00N 51°48' E 003°00'1616.0 1024.5
2015-May-27 07:00N 51°42' E 002°36'1919.1 1024.4
2015-May-27 06:00N 51°30' E 002°12'1919.5 1024.5
2015-May-27 05:00N 51°12' E 002°00'1919.3 1024.9
2015-May-27 04:00N 51°00' E 001°36'2019.5 1024.8
2015-May-27 03:00N 50°42' E 001°24'1312.9 1025.6
2015-May-27 02:00N 50°36' E 001°06'1312.9 1026.1
2015-May-27 01:00N 50°30' E 000°48'2020.0 1025.9
2015-May-27 00:00N 50°24' E 000°18'1616.4 1026.3
2015-May-26 23:00N 50°18' W 000°06'1616.5 1026.4
2015-May-26 22:00N 50°12' W 000°30'1919.2 1026.4
2015-May-26 21:00N 50°12' W 001°00'1716.5 1026.6
2015-May-26 20:00N 50°06' W 001°24'1716.5 1026.6
2015-May-26 19:00N 50°00' W 001°48'1716.6 1026.5
2015-May-26 18:00N 49°54' W 002°12'1515.5 1026.3
2015-May-26 17:00N 49°54' W 002°36'2020.3 1026.5
2015-May-26 16:00N 49°48' W 003°06'1515.5 1026.6
2015-May-26 15:00N 49°48' W 003°30'2020.3 1026.6
2015-May-26 14:00N 49°42' W 004°00'1615.5 1026.7
2015-May-26 13:00N 49°42' W 004°24'1919.4 1026.9
2015-May-26 12:00N 49°42' W 004°54'1716.7 1027.1
2015-May-26 11:00N 49°36' W 005°18'1919.4 1027.5
2015-May-26 10:00N 49°36' W 005°48'1615.6 1027.7
2015-May-26 09:00N 49°36' W 006°12'1919.4 1027.6
2015-May-26 08:00N 49°36' W 006°42'1919.4 1027.4
2015-May-26 07:00N 49°36' W 007°12'2020.4 1027.4
2015-May-26 06:00N 49°30' W 007°42'1919.5 1027.1
2015-May-26 05:00N 49°30' W 008°12'2020.4 1026.8
2015-May-26 04:00N 49°24' W 008°42'1615.6 1027.0
2015-May-26 03:00N 49°24' W 009°06'2020.4 1027.3
2015-May-26 02:00N 49°18' W 009°36'2020.5 1027.5
2015-May-26 01:00N 49°12' W 010°06'1716.8 1027.9
2015-May-26 00:00N 49°06' W 010°30'2019.6 1028.5
2015-May-25 23:00N 49°06' W 011°00'2120.6 1028.8
2015-May-25 22:00N 49°00' W 011°30'1716.9 1028.8
2015-May-25 21:00N 48°54' W 011°54'2019.7 1028.9
2015-May-25 20:00N 48°54' W 012°24'1716.9 1029.1
2015-May-25 19:00N 48°48' W 012°48'2120.7 1029.3
2015-May-25 18:00N 48°42' W 013°18'2120.7 1029.6
2015-May-25 17:00N 48°36' W 013°48'1615.9 1030.2
2015-May-25 16:00N 48°36' W 014°12'2120.7 1030.6
2015-May-25 15:00N 48°30' W 014°42'1717.0 1031.0
2015-May-25 14:00N 48°24' W 015°06'2120.8 1031.4
2015-May-25 13:00N 48°18' W 015°36'1717.1 1031.7
2015-May-25 12:00N 48°12' W 016°00'2120.9 1031.8
2015-May-25 11:00N 48°06' W 016°30'2120.9 1031.9
2015-May-25 10:00N 48°00' W 017°00'1616.1 1032.3
2015-May-25 09:00N 48°00' W 017°24'2121.0 1032.4
2015-May-25 08:00N 47°54' W 017°54'1717.2 1032.4
2015-May-25 07:00N 47°48' W 018°18'1717.2 1032.2
2015-May-25 06:00N 47°42' W 018°42'2121.1 1032.3
2015-May-25 05:00N 47°36' W 019°12'1717.3 1032.3
2015-May-25 04:00N 47°30' W 019°36'2020.2 1032.8
2015-May-25 03:00N 47°18' W 020°00'2020.3 1033.1
2015-May-25 02:00N 47°18' W 020°30'2020.2 1033.7
2015-May-25 01:00N 47°06' W 020°54'1717.4 1034.1
2015-May-25 00:00N 47°00' W 021°18'2121.3 1034.4
2015-May-24 23:00N 46°54' W 021°48'1717.5 1034.7
2015-May-24 22:00N 46°48' W 022°12'1817.5 1034.5
2015-May-24 21:00N 46°42' W 022°36'2121.4 1034.2
2015-May-24 20:00N 46°36' W 023°06'1817.6 1034.3
2015-May-24 19:00N 46°30' W 023°30'1817.6 1034.5
2015-May-24 18:00N 46°24' W 023°54'2020.5 1034.5
2015-May-24 17:00N 46°12' W 024°18'1817.7 1034.5
2015-May-24 16:00N 46°06' W 024°42'1817.7 1034.5
2015-May-24 15:00N 46°00' W 025°06'1817.7 1034.8
2015-May-24 14:00N 45°54' W 025°30'2120.6 1035.0
2015-May-24 13:00N 45°42' W 025°54'3617.8 1035.3
2015-May-24 11:00N 45°30' W 026°42'1817.9 1035.3
2015-May-24 10:00N 45°24' W 027°06'2424.3 1035.4
2015-May-24 09:00N 45°12' W 027°36'1818.0 1035.3
2015-May-24 08:00N 45°06' W 028°00'1818.0 1035.4
2015-May-24 07:00N 45°00' W 028°24'2120.8 1035.4
2015-May-24 06:00N 44°48' W 028°48'1818.1 1035.4
2015-May-24 05:00N 44°42' W 029°12'2120.9 1035.6
2015-May-24 04:00N 44°30' W 029°36'1818.2 1035.6
2015-May-24 03:00N 44°24' W 030°00'2121.0 1035.8
2015-May-24 02:00N 44°12' W 030°24'1818.2 1036.2
2015-May-24 01:00N 44°06' W 030°48'1818.3 1036.5
2015-May-24 00:00N 44°00' W 031°12'1817.7 1036.9
2015-May-23 23:00N 43°48' W 031°30'1818.3 1037.3
2015-May-23 22:00N 43°42' W 031°54'2121.1 1037.2
2015-May-23 21:00N 43°30' W 032°18'1818.4 1037.2
2015-May-23 20:00N 43°24' W 032°42'2121.2 1037.1
2015-May-23 19:00N 43°12' W 033°06'1414.4 1037.0
2015-May-23 18:00N 43°06' W 033°24'2121.3 1037.0
2015-May-23 17:00N 42°54' W 033°48'1918.6 1037.2
2015-May-23 16:00N 42°48' W 034°12'2121.3 1037.2
2015-May-23 15:00N 42°36' W 034°36'1817.9 1037.2
2015-May-23 14:00N 42°24' W 034°54'1918.7 1037.3
2015-May-23 13:00N 42°18' W 035°18'2121.5 1037.0
2015-May-23 12:00N 42°06' W 035°42'1514.7 1036.7
2015-May-23 11:00N 42°00' W 036°00'2221.5 1036.3
2015-May-23 10:00N 41°48' W 036°24'2221.6 1036.1
2015-May-23 09:00N 41°36' W 036°48'1514.7 1035.8
2015-May-23 08:00N 41°30' W 037°06'2221.6 1035.3
2015-May-23 07:00N 41°18' W 037°30'1818.1 1034.8
2015-May-23 06:00N 41°06' W 037°48'1919.1 1034.5
2015-May-23 05:00N 41°00' W 038°12'1818.1 1034.3
2015-May-23 04:00N 40°48' W 038°30'2221.8 1034.5
2015-May-23 03:00N 40°36' W 038°54'1514.9 1034.3
2015-May-23 02:00N 40°30' W 039°12'2221.9 1034.2
2015-May-23 01:00N 40°18' W 039°36'1818.2 1034.2
2015-May-23 00:00N 40°06' W 039°54'2222.0 1034.0
2015-May-22 23:00N 39°54' W 040°18'1515.1 1033.6
2015-May-22 22:00N 39°48' W 040°36'1818.3 1032.7
2015-May-22 21:00N 39°36' W 040°54'2222.1 1032.0
2015-May-22 20:00N 39°24' W 041°18'1818.4 1031.3
2015-May-22 19:00N 39°12' W 041°36'1818.4 1030.8
2015-May-22 18:00N 39°00' W 041°54'2222.2 1030.3
2015-May-22 17:00N 38°48' W 042°18'1515.3 1030.0
2015-May-22 16:00N 38°42' W 042°36'2222.3 1029.7
2015-May-22 15:00N 38°30' W 043°00'1918.5 1029.4
2015-May-22 14:00N 38°18' W 043°18'1918.5 1029.0
2015-May-22 13:00N 38°06' W 043°36'1918.6 1028.5
2015-May-22 12:00N 37°54' W 043°54'2222.4 1028.0
2015-May-22 11:00N 37°42' W 044°18'1515.5 1027.1
2015-May-22 10:00N 37°36' W 044°36'1918.7 1026.4
2015-May-22 09:00N 37°24' W 044°54'1918.7 1025.3
2015-May-22 08:00N 37°12' W 045°12'2322.6 1024.5
2015-May-22 07:00N 37°00' W 045°36'1918.7 1023.9
2015-May-22 06:00N 36°48' W 045°54'1918.8 1023.6
2015-May-22 05:00N 36°36' W 046°12'1918.8 1023.2
2015-May-22 04:00N 36°24' W 046°30'1918.8 1023.0
2015-May-22 03:00N 36°12' W 046°48'1918.9 1023.1
2015-May-22 02:00N 36°00' W 047°06'1918.9 1022.9
2015-May-22 01:00N 35°48' W 047°24'2322.9 1022.7
2015-May-22 00:00N 35°36' W 047°48'1918.9 1022.1
2015-May-21 23:00N 35°24' W 048°06'1515.5 1021.2
2015-May-21 22:00N 35°12' W 048°18'1919.0 1020.2
2015-May-21 21:00N 35°00' W 048°36'1919.0 1019.5
2015-May-21 20:00N 34°48' W 048°54'1919.1 1019.2
2015-May-21 19:00N 34°36' W 049°12'1919.1 1019.2
2015-May-21 18:00N 34°24' W 049°30'2323.2 1018.9
2015-May-21 17:00N 34°12' W 049°54'1919.1 1019.1
2015-May-21 16:00N 34°00' W 050°12'1615.6 1018.9
2015-May-21 15:00N 33°48' W 050°24'2323.3 1018.7
2015-May-21 14:00N 33°36' W 050°48'1919.2 1018.9
2015-May-21 13:00N 33°24' W 051°06'1919.2 1018.4
2015-May-21 12:00N 33°12' W 051°24'1919.3 1018.1
2015-May-21 11:00N 33°00' W 051°42'1919.3 1017.6
2015-May-21 10:00N 32°48' W 052°00'1919.3 1017.5
2015-May-21 09:00N 32°36' W 052°18'1919.4 1017.0
2015-May-21 08:00N 32°24' W 052°36'1919.4 1016.4
2015-May-21 07:00N 32°12' W 052°54'1615.7 1016.2
2015-May-21 06:00N 32°00' W 053°06'1919.4 1016.3
2015-May-21 05:00N 31°48' W 053°24'1919.5 1016.4
2015-May-21 04:00N 31°36' W 053°42'1919.5 1016.7
2015-May-21 03:00N 31°24' W 054°00'1615.8 1016.9
2015-May-21 02:00N 31°12' W 054°12'2423.7 1017.0
2015-May-21 01:00N 30°54' W 054°30'2019.6 1017.1
2015-May-21 00:00N 30°42' W 054°48'1615.8 1016.9
2015-May-20 23:00N 30°30' W 055°00'2019.6 1016.4
2015-May-20 22:00N 30°18' W 055°18'2019.6 1016.2
2015-May-20 21:00N 30°06' W 055°36'1615.9 1015.6
2015-May-20 20:00N 29°54' W 055°48'2019.7 1015.7
2015-May-20 19:00N 29°42' W 056°06'2019.7 1016.1
2015-May-20 18:00N 29°30' W 056°24'1615.9 1016.2
2015-May-20 17:00N 29°18' W 056°36'2423.9 1016.6
2015-May-20 16:00N 29°00' W 056°54'2019.8 1016.7
2015-May-20 15:00N 28°48' W 057°12'1616.0 1016.6
2015-May-20 14:00N 28°36' W 057°24'2019.9 1016.7
2015-May-20 13:00N 28°24' W 057°42'2019.9 1016.7
2015-May-20 12:00N 28°12' W 058°00'1616.0 1016.7
2015-May-20 11:00N 28°00' W 058°12'2424.0 1016.3
2015-May-20 10:00N 27°42' W 058°30'1616.0 1016.3
2015-May-20 09:00N 27°30' W 058°42'2020.0 1015.7
2015-May-20 08:00N 27°18' W 059°00'1616.1 1015.5
2015-May-20 07:00N 27°06' W 059°12'1616.1 1015.8
2015-May-20 06:00N 26°54' W 059°24'2020.1 1015.7
2015-May-20 05:00N 26°42' W 059°42'1616.1 1016.1
2015-May-20 04:00N 26°30' W 059°54'2020.1 1016.9
2015-May-20 03:00N 26°18' W 060°12'1616.1 1017.6
2015-May-20 02:00N 26°06' W 060°24'2121.0 1017.9
2015-May-20 01:00N 25°48' W 060°36'2020.2 1017.5
2015-May-20 00:00N 25°36' W 060°54'1616.2 1017.3
2015-May-19 23:00N 25°24' W 061°06'2020.2 1017.1
2015-May-19 22:00N 25°12' W 061°24'1616.2 1016.8
2015-May-19 21:00N 25°00' W 061°36'2121.0 1016.9
2015-May-19 20:00N 24°42' W 061°48'2020.3 1017.1
2015-May-19 19:00N 24°30' W 062°06'1616.2 1017.5
2015-May-19 18:00N 24°18' W 062°18'   1018.1

Dump ship's entire track history